NCAR-RAP Real-Time Weather Data

Output produced by METARs form (17 December 2018  07:32 UTC)
found at http://weather.rap.ucar.edu/surface/
 
RJGG 170700Z 33018KT 9999 FEW020 12/05 Q1008 NOSIG
RJGG 170630Z 34016KT 9999 FEW020 SCT050 12/06 Q1008 NOSIG
RJGG 170600Z 32019KT 9999 FEW020 SCT050 13/05 Q1008 NOSIG
RJGG 170530Z 32015KT 9999 VCSH FEW020 SCT040 BKN060 12/06 Q1008 NOSIG
RJGG 170500Z 30016KT 9999 FEW020 13/07 Q1007 NOSIG
RJGG 170430Z 31017KT 9999 FEW020 13/07 Q1007 NOSIG
RJGG 170400Z 29015KT 9999 FEW015 SCT060 13/07 Q1007 NOSIG
RJGG 170330Z 31020KT 9999 FEW015 BKN050 13/07 Q1008 NOSIG
RJGG 170300Z 29011G23KT 9999 FEW015 BKN035 13/08 Q1008 BECMG 32021KT
RJGG 170230Z 30006KT 9999 FEW015 SCT035 11/07 Q1008 BECMG 32016KT
RJGG 170200Z 31010KT 9999 FEW015 12/08 Q1009 BECMG 32020KT
RJGG 170130Z 30013KT 9999 FEW015 11/07 Q1009 NOSIG
RJGG 170100Z 32014KT 9999 FEW015 11/07 Q1009 NOSIG
RJGG 170030Z 32013KT 9999 FEW015 10/08 Q1010 NOSIG
RJGG 170000Z 33013KT 9999 FEW010 10/07 Q1010 NOSIG
RJGG 162330Z 34013KT 9999 FEW010 BKN070 09/06 Q1010 NOSIG
RJGG 162300Z 34014KT 9999 FEW010 BKN070 08/06 Q1010 NOSIG
RJGG 162230Z 34014KT 9999 FEW008 BKN070 08/06 Q1010 NOSIG
RJGG 162200Z 35014KT 9999 FEW008 SCT050 BKN070 08/06 Q1010 NOSIG
RJGG 162130Z 35016KT 9999 -RA FEW008 BKN020 BKN050 07/06 Q1010 NOSIG
RJGG 162100Z 35014KT 9999 -RA FEW004 BKN010 BKN020 07/06 Q1010 NOSIG
RJGG 162030Z 35011KT 9999 -RA FEW004 BKN008 BKN020 07/06 Q1010 NOSIG
RJGG 162000Z 35008KT 9999 -RA FEW004 BKN006 BKN020 07/06 Q1011 NOSIG
RJGG 161930Z 35008KT 9999 -RA FEW004 BKN006 BKN020 07/06 Q1011 NOSIG
RJGG 161900Z 35010KT 9999 -RA FEW004 BKN006 BKN020 07/06 Q1012 TEMPO 4000 RA BR FEW003 BKN005
RJGG 161830Z 35010KT 9999 -RA FEW004 BKN006 BKN020 07/06 Q1012 TEMPO 4000 RA BR FEW003 BKN005
RJGG 161800Z 35013KT 8000 -RA FEW004 BKN006 07/06 Q1012 TEMPO 3000 RA BR FEW003 BKN005
RJGG 161730Z 36014KT 4000 -RA BR FEW004 BKN006 BKN040 07/06 Q1013 TEMPO 3000 RA BR FEW003 BKN005
RJGG 161700Z 01011KT 4000 RA BR FEW004 SCT006 BKN050 07/06 Q1014 TEMPO 3000 RA BR FEW003 BKN005
RJGG 161630Z 01014KT 4000 RA BR FEW004 SCT006 BKN040 07/06 Q1014 TEMPO 3000 RA BR FEW003 BKN005
RJGG 161600Z 01012KT 5000 RA BR FEW005 SCT020 BKN040 07/06 Q1014 TEMPO 3000 RA BR FEW003 BKN005
RJGG 161530Z 01014KT 4000 RA BR FEW005 SCT020 BKN040 07/06 Q1014 TEMPO 3000 RA BR FEW005 BKN008
RJGG 161500Z 35017KT 4000 -RA BR FEW007 BKN020 07/05 Q1015 TEMPO 3000 RA BR FEW005 BKN008
RJGG 161430Z 36017KT 6000 -RA FEW007 BKN020 06/05 Q1015 TEMPO 4000 RA BR FEW005 BKN008
RJGG 161400Z 36015KT 8000 -RA FEW020 BKN030 06/05 Q1016 NOSIG
RJGG 161330Z 35014KT 8000 -RA FEW020 BKN030 BKN040 06/04 Q1016 NOSIG
RJGG 161300Z 35012KT 9999 -RA FEW020 BKN030 BKN040 07/04 Q1017 NOSIG
RJGG 161230Z 35010KT 9999 -RA FEW020 BKN030 07/02 Q1017 NOSIG
RJGG 161200Z 35008KT 9999 -RA FEW020 BKN040 08/03 Q1018 NOSIG
RJGG 161130Z 35007KT 9999 -RA FEW020 BKN050 09/01 Q1018 NOSIG
RJGG 161100Z 36005KT 9999 FEW020 BKN080 09/01 Q1018 NOSIG
RJGG 161030Z 35008KT 9999 FEW020 BKN080 08/02 Q1019 NOSIG
RJGG 161000Z 35004KT 9999 FEW020 BKN080 09/01 Q1019 NOSIG
RJGG 160930Z 36005KT 9999 FEW020 BKN080 08/01 Q1019 NOSIG
RJGG 160900Z 02006KT 9999 FEW020 BKN100 BKN/// 08/01 Q1019 NOSIG
RJGG 160830Z 36008KT 9999 FEW020 BKN100 BKN/// 08/01 Q1020 NOSIG
RJGG 160800Z 35007KT 9999 FEW020 BKN100 BKN150 08/01 Q1020 NOSIG
RJGG 160730Z 35007KT 9999 FEW020 BKN110 09/01 Q1021 NOSIG
RJGG 160700Z 36006KT 9999 FEW020 BKN110 BKN/// 09/01 Q1021 NOSIG
RJGG 160630Z 36005KT 9999 FEW030 BKN110 BKN/// 09/01 Q1021 NOSIG
RJGG 160600Z 01005KT 9999 FEW030 BKN130 BKN/// 09/01 Q1021 NOSIG
RJGG 160530Z 36007KT 9999 FEW030 BKN140 BKN/// 09/00 Q1021 NOSIG
RJGG 160500Z 35008KT 9999 FEW030 BKN140 BKN/// 09/M00 Q1022 NOSIG
RJGG 160430Z 35010KT 9999 FEW030 BKN150 BKN/// 09/M00 Q1022 NOSIG
RJGG 160400Z 34009KT 9999 FEW030 BKN150 BKN/// 09/01 Q1022 NOSIG
RJGG 160330Z 32008KT 9999 FEW030 SCT150 BKN/// 09/01 Q1023 NOSIG
RJGG 160300Z 34005KT 290V020 9999 FEW030 BKN/// 08/M01 Q1023 NOSIG
RJGG 160230Z 03004KT 320V090 9999 FEW030 SCT/// 08/M02 Q1024 NOSIG
RJGG 160200Z 02004KT 280V080 9999 FEW030 SCT/// 07/M02 Q1025 NOSIG
RJGG 160130Z 33004KT 9999 FEW030 SCT170 BKN/// 07/M00 Q1026 NOSIG
RJGG 160100Z 33003KT 270V360 9999 FEW030 BKN170 07/M00 Q1026 NOSIG
RJGG 160030Z 35003KT 280V100 9999 FEW030 SCT/// 06/M00 Q1026 NOSIG
RJGG 160000Z 01003KT 330V050 9999 FEW030 SCT170 06/M00 Q1026 NOSIG
RJGG 152330Z 02005KT 340V060 9999 FEW030 SCT170 05/M00 Q1026 NOSIG
RJGG 151330Z 35012KT 9999 FEW020 06/M03 Q1028 NOSIG
RJGG 151300Z 34011KT 9999 FEW020 06/M04 Q1028 NOSIG
RJGG 151230Z 33011KT 9999 FEW020 07/M03 Q1029 NOSIG
RJGG 151200Z 33013KT 290V360 9999 FEW020 06/M05 Q1028 NOSIG
RJGG 151130Z 34012KT 9999 FEW020 06/M03 Q1028 NOSIG
RJGG 151100Z 33013KT 9999 FEW020 06/M03 Q1028 NOSIG
RJGG 151030Z 34014KT 9999 FEW020 07/M03 Q1028 NOSIG
RJGG 151000Z 35014KT 9999 FEW020 06/M03 Q1028 NOSIG
RJGG 150930Z 33016KT 9999 FEW020 07/M03 Q1028 NOSIG
RJGG 150900Z 35017KT 9999 FEW020 07/M04 Q1028 NOSIG
RJGG 150830Z 33018KT 9999 FEW020 07/M05 Q1028 NOSIG
RJGG 150800Z 34017KT 9999 FEW020 08/M03 Q1027 NOSIG
RJGG 150730Z 33019KT 9999 FEW020 08/M02 Q1027 NOSIG
RJGG 150700Z 35022KT 9999 FEW020 08/M03 Q1027 NOSIG
RJGG 150630Z 34020KT 9999 FEW020 08/M04 Q1027 NOSIG
RJGG 150600Z 33019KT 9999 FEW020 SCT050 09/M01 Q1027 NOSIG
RJGG 150530Z 32021KT 9999 FEW020 SCT050 09/M01 Q1027 NOSIG
RJGG 150500Z 34017KT 310V020 9999 FEW020 BKN050 08/M03 Q1027 NOSIG
RJGG 150430Z 35018KT 9999 FEW020 BKN050 08/M04 Q1027 NOSIG
RJGG 150400Z 31019KT 9999 FEW020 BKN050 09/M02 Q1027 NOSIG
RJGG 150330Z 31014KT 9999 FEW020 BKN060 09/M02 Q1027 NOSIG
RJGG 150300Z 32015KT 9999 FEW020 BKN060 09/M01 Q1027 NOSIG
RJGG 150230Z 32014KT 9999 FEW020 SCT060 09/M01 Q1028 NOSIG
RJGG 150200Z 33014KT 9999 FEW020 SCT060 08/M02 Q1028 NOSIG
RJGG 150130Z 33014KT 9999 FEW020 SCT060 08/M02 Q1028 NOSIG
RJGG 150100Z 34014KT 9999 FEW020 BKN060 07/M03 Q1028 NOSIG
RJGG 150030Z 33015KT 9999 FEW030 BKN060 07/M02 Q1029 NOSIG
RJGG 150000Z 33014KT 9999 FEW030 BKN060 07/M00 Q1028 NOSIG
RJGG 142330Z 34013KT 9999 FEW030 BKN060 07/M02 Q1028 NOSIG
RJGG 142300Z 34013KT 9999 FEW030 BKN060 06/M01 Q1028 NOSIG
RJGG 142230Z 32014KT 9999 FEW030 BKN060 07/M00 Q1028 NOSIG
RJGG 142200Z 33014KT 9999 FEW030 BKN060 07/M00 Q1027 NOSIG
RJGG 142130Z 33013KT 9999 FEW030 SCT050 06/M01 Q1027 NOSIG
RJGG 142100Z 35010KT 9999 FEW030 BKN070 06/M01 Q1027 NOSIG
RJGG 142030Z 34011KT 310V010 9999 FEW030 BKN070 05/M02 Q1027 NOSIG
RJGG 142000Z 34010KT 9999 FEW030 BKN070 05/M02 Q1027 NOSIG